Ben-my-chree — MXLG6 — position and weather

sailwx.info

Track history (hours):
 
Tides and Currents Weather Stations Pressure Air Temp Water Temp Dewpoint Dewpoint Depression Visibility Wind Speed Wind Dir Waves Ship Positions

Ben-my-chree

Operator: The Isle of Man Steam Packet Co Ltd

Last reported at 2018-Aug-17 23:09 UTC. Time now 2018-Aug-18 00:46 UTC.
Position N 54°02' W 002°55'.

Length 120 m; draft 5 m.

Type: Passenger vessel. MMSI: 234983000.

Date/timePositionNaut miles runAvg speedWind from/ knotsBaromVisibWave heightAir tempDewpointWater temp
2018-Aug-17 23:09N 54°02' W 002°55'713.4
2018-Aug-17 22:40N 53°58' W 003°04'318.0
2018-Aug-17 22:30N 53°56' W 003°08'918.0
2018-Aug-17 22:00N 53°56' W 003°23'917.1
2018-Aug-17 21:28N 53°58' W 003°38'6 0.9
2018-Aug-17 14:51N 53°56' W 003°29'1315.3
2018-Aug-17 14:00N 53°57' W 003°07'0 0.1
2018-Aug-17 10:41N 53°57' W 003°07'211.8
2018-Aug-17 10:30N 53°56' W 003°10'612.5
2018-Aug-17 10:00N 53°55' W 003°20'814.7
2018-Aug-17 09:30N 53°56' W 003°33'32 6.7
2018-Aug-17 04:42N 54°09' W 004°24'3517.4
2018-Aug-17 02:40N 53°56' W 003°27'916.8
2018-Aug-17 02:07N 53°56' W 003°12'216.1
2018-Aug-17 01:58N 53°56' W 003°08'9 2.9
2018-Aug-16 22:46N 54°02' W 002°55'715.9
2018-Aug-16 22:21N 53°58' W 003°04'718.5
2018-Aug-16 21:58N 53°56' W 003°16'818.5
2018-Aug-16 21:31N 53°56' W 003°30'918.1
2018-Aug-16 21:00N 53°59' W 003°45'10 1.6
2018-Aug-16 14:48N 53°56' W 003°30'1116.6
2018-Aug-16 14:09N 53°56' W 003°12'216.1
2018-Aug-16 14:00N 53°56' W 003°08'0 0.1
2018-Aug-16 10:16N 53°56' W 003°07'916.2
2018-Aug-16 09:43N 53°56' W 003°22'315.8
2018-Aug-16 09:30N 53°56' W 003°28'1215.6
2018-Aug-16 08:43N 53°60' W 003°48'23 5.4
2018-Aug-16 04:32N 54°09' W 004°23'3417.6
2018-Aug-16 02:35N 53°56' W 003°29'117.1
2018-Aug-16 02:29N 53°56' W 003°27'816.9
2018-Aug-16 02:00N 53°56' W 003°13'815.4
2018-Aug-16 01:30N 53°59' W 003°01'4 1.3
2018-Aug-15 22:02N 54°02' W 002°55'714.4
2018-Aug-15 21:33N 53°57' W 003°04'218.6
2018-Aug-15 21:28N 53°57' W 003°07'918.5
2018-Aug-15 21:00N 53°56' W 003°21'917.6
2018-Aug-15 20:30N 53°57' W 003°36'917.4
2018-Aug-15 20:00N 54°00' W 003°50'22 6.4
2018-Aug-15 16:31N 54°09' W 004°25'018.3
2018-Aug-15 16:30N 54°09' W 004°24'47 7.0
2018-Aug-15 09:48N 53°56' W 003°08'619.4
2018-Aug-15 09:29N 53°56' W 003°18'918.3
2018-Aug-15 09:01N 53°56' W 003°33'2 0.3
2018-Aug-15 02:27N 53°56' W 003°30'1017.7
2018-Aug-15 01:53N 53°56' W 003°13'816.6
2018-Aug-15 01:25N 53°59' W 003°01'4 1.3
2018-Aug-14 22:08N 54°02' W 002°55'314.4
2018-Aug-14 21:53N 53°59' W 002°60'411.1
2018-Aug-14 21:30N 53°57' W 003°06'815.8
2018-Aug-14 21:00N 53°55' W 003°18'918.4
2018-Aug-14 20:30N 53°57' W 003°34'3 0.6
2018-Aug-14 14:25N 53°56' W 003°28'918.2
2018-Aug-14 13:56N 53°56' W 003°13'817.3
2018-Aug-14 13:28N 53°59' W 003°01'5 1.5
2018-Aug-14 10:21N 53°56' W 003°07'720.5
2018-Aug-14 10:00N 53°55' W 003°19'1019.6
2018-Aug-14 09:30N 53°57' W 003°35'9 1.4
2018-Aug-14 03:10N 54°00' W 003°50'717.7
2018-Aug-14 02:45N 53°58' W 003°38'617.4
2018-Aug-14 02:25N 53°56' W 003°29'1017.6
2018-Aug-14 01:53N 53°56' W 003°13'817.3
2018-Aug-14 01:25N 53°59' W 003°01'4 1.3
2018-Aug-13 21:58N 54°02' W 002°55'1018.7
2018-Aug-13 21:26N 53°56' W 003°09'819.2
2018-Aug-13 21:00N 53°55' W 003°23'6 0.9
2018-Aug-13 13:56N 53°56' W 003°12'717.2
2018-Aug-13 13:30N 53°59' W 003°01'4 1.7
2018-Aug-13 10:53N 54°02' W 002°55'918.5
2018-Aug-13 10:25N 53°57' W 003°07'819.1
2018-Aug-13 10:00N 53°56' W 003°20'918.5
2018-Aug-13 09:30N 53°57' W 003°36'2 0.3
2018-Aug-13 02:21N 53°55' W 003°33'1219.3
2018-Aug-13 01:44N 53°55' W 003°13'519.5
2018-Aug-13 01:30N 53°57' W 003°06'1 0.2
2018-Aug-12 21:39N 53°57' W 003°04'321.8
2018-Aug-12 21:30N 53°56' W 003°09'1020.3
2018-Aug-12 21:00N 53°55' W 003°26'1119.5
2018-Aug-12 20:27N 53°58' W 003°44'12 1.9
2018-Aug-12 14:23N 53°56' W 003°24'820.3
2018-Aug-12 14:00N 53°56' W 003°11'5 1.9
2018-Aug-12 11:30N 53°58' W 003°04'918.8
2018-Aug-12 11:00N 53°56' W 003°19'918.7
2018-Aug-12 10:30N 53°57' W 003°35'5711.2
2018-Aug-12 05:23N 54°15' W 005°07'717.3
2018-Aug-12 05:00N 54°22' W 005°09'918.5
2018-Aug-12 04:31N 54°30' W 005°16'917.6
2018-Aug-12 04:01N 54°38' W 005°20'714.8
2018-Aug-12 03:31N 54°43' W 005°30'918.6
2018-Aug-12 03:00N 54°42' W 005°46'611.0
2018-Aug-12 02:28N 54°37' W 005°54'1 2.1
2018-Aug-12 01:58N 54°37' W 005°55'0 0.0
2018-Aug-12 01:28N 54°37' W 005°55'1 2.0
2018-Aug-12 01:00N 54°37' W 005°54'612.1
2018-Aug-12 00:31N 54°42' W 005°46'815.0
2018-Aug-12 00:00N 54°43' W 005°34'816.1
2018-Aug-11 23:30N 54°38' W 005°23'918.5
2018-Aug-11 23:00N 54°30' W 005°17'918.1
2018-Aug-11 22:30N 54°22' W 005°09'918.1
2018-Aug-11 22:01N 54°14' W 005°01'57 7.3
2018-Aug-11 14:11N 53°56' W 003°29'919.8
2018-Aug-11 13:43N 53°56' W 003°13'420.1
2018-Aug-11 13:30N 53°57' W 003°06'8 3.0
2018-Aug-11 10:47N 54°02' W 002°55'616.8
2018-Aug-11 10:24N 53°58' W 003°04'819.1
2018-Aug-11 09:58N 53°56' W 003°18'918.8
2018-Aug-11 09:29N 53°57' W 003°33'919.1
2018-Aug-11 09:00N 53°60' W 003°47'12 1.8
2018-Aug-11 02:10N 53°56' W 003°28'1019.4
2018-Aug-11 01:41N 53°56' W 003°12'2 0.4
2018-Aug-10 21:15N 53°56' W 003°09'519.4
2018-Aug-10 21:00N 53°55' W 003°17'918.8
2018-Aug-10 20:30N 53°57' W 003°33'2 0.3
2018-Aug-10 14:23N 53°56' W 003°30'1018.8
2018-Aug-10 13:50N 53°56' W 003°12'3 0.9
2018-Aug-10 10:22N 53°57' W 003°07'618.1
2018-Aug-10 10:00N 53°55' W 003°18'918.2
2018-Aug-10 09:30N 53°57' W 003°33'3 0.4
2018-Aug-10 02:34N 53°55' W 003°29'1118.6
2018-Aug-10 01:59N 53°56' W 003°11'2 0.5
2018-Aug-09 21:23N 53°56' W 003°07'718.5
2018-Aug-09 20:59N 53°55' W 003°19'918.6
2018-Aug-09 20:30N 53°57' W 003°34'33 8.2
2018-Aug-09 16:28N 54°09' W 004°27'3617.9
2018-Aug-09 14:26N 53°56' W 003°29'1018.7
2018-Aug-09 13:55N 53°56' W 003°12'5 1.6
2018-Aug-09 10:29N 53°58' W 003°04'917.9
2018-Aug-09 10:00N 53°55' W 003°18'917.8
2018-Aug-09 09:30N 53°56' W 003°33'3 0.4
2018-Aug-09 02:23N 53°56' W 003°28'1018.4
2018-Aug-09 01:52N 53°56' W 003°12'4 1.0
2018-Aug-08 21:30N 53°57' W 003°05'916.7
2018-Aug-08 20:59N 53°55' W 003°19'918.2
2018-Aug-08 20:30N 53°56' W 003°34'2 0.3
2018-Aug-08 14:24N 53°56' W 003°30'1017.7
2018-Aug-08 13:49N 53°56' W 003°13'4 1.2
2018-Aug-08 10:32N 53°57' W 003°06'117.4
2018-Aug-08 10:30N 53°57' W 003°07'917.4
2018-Aug-08 10:01N 53°55' W 003°21'817.0
2018-Aug-08 09:31N 53°57' W 003°35'3 0.5
2018-Aug-08 02:23N 53°56' W 003°30'1117.7
2018-Aug-08 01:47N 53°56' W 003°11'  
Track history (hours):
 
Tides and Currents Weather Stations Pressure Air Temp Water Temp Dewpoint Dewpoint Depression Visibility Wind Speed Wind Dir Waves Ship Positions

Ben-my-chree

Operator: The Isle of Man Steam Packet Co Ltd

Last reported at 2018-Aug-17 23:09 UTC. Time now 2018-Aug-18 00:46 UTC.
Position N 54°02' W 002°55'.

Length 120 m; draft 5 m.

Type: Passenger vessel. MMSI: 234983000.

Date/timePositionNaut miles runAvg speedWind from/ knotsBaromVisibWave heightAir tempDewpointWater temp
2018-Aug-17 23:09N 54°02' W 002°55'713.4
2018-Aug-17 22:40N 53°58' W 003°04'318.0
2018-Aug-17 22:30N 53°56' W 003°08'918.0
2018-Aug-17 22:00N 53°56' W 003°23'917.1
2018-Aug-17 21:28N 53°58' W 003°38'6 0.9
2018-Aug-17 14:51N 53°56' W 003°29'1315.3
2018-Aug-17 14:00N 53°57' W 003°07'0 0.1
2018-Aug-17 10:41N 53°57' W 003°07'211.8
2018-Aug-17 10:30N 53°56' W 003°10'612.5
2018-Aug-17 10:00N 53°55' W 003°20'814.7
2018-Aug-17 09:30N 53°56' W 003°33'32 6.7
2018-Aug-17 04:42N 54°09' W 004°24'3517.4
2018-Aug-17 02:40N 53°56' W 003°27'916.8
2018-Aug-17 02:07N 53°56' W 003°12'216.1
2018-Aug-17 01:58N 53°56' W 003°08'9 2.9
2018-Aug-16 22:46N 54°02' W 002°55'715.9
2018-Aug-16 22:21N 53°58' W 003°04'718.5
2018-Aug-16 21:58N 53°56' W 003°16'818.5
2018-Aug-16 21:31N 53°56' W 003°30'918.1
2018-Aug-16 21:00N 53°59' W 003°45'10 1.6
2018-Aug-16 14:48N 53°56' W 003°30'1116.6
2018-Aug-16 14:09N 53°56' W 003°12'216.1
2018-Aug-16 14:00N 53°56' W 003°08'0 0.1
2018-Aug-16 10:16N 53°56' W 003°07'916.2
2018-Aug-16 09:43N 53°56' W 003°22'315.8
2018-Aug-16 09:30N 53°56' W 003°28'1215.6
2018-Aug-16 08:43N 53°60' W 003°48'23 5.4
2018-Aug-16 04:32N 54°09' W 004°23'3417.6
2018-Aug-16 02:35N 53°56' W 003°29'117.1
2018-Aug-16 02:29N 53°56' W 003°27'816.9
2018-Aug-16 02:00N 53°56' W 003°13'815.4
2018-Aug-16 01:30N 53°59' W 003°01'4 1.3
2018-Aug-15 22:02N 54°02' W 002°55'714.4
2018-Aug-15 21:33N 53°57' W 003°04'218.6
2018-Aug-15 21:28N 53°57' W 003°07'918.5
2018-Aug-15 21:00N 53°56' W 003°21'917.6
2018-Aug-15 20:30N 53°57' W 003°36'917.4
2018-Aug-15 20:00N 54°00' W 003°50'22 6.4
2018-Aug-15 16:31N 54°09' W 004°25'018.3
2018-Aug-15 16:30N 54°09' W 004°24'47 7.0
2018-Aug-15 09:48N 53°56' W 003°08'619.4
2018-Aug-15 09:29N 53°56' W 003°18'918.3
2018-Aug-15 09:01N 53°56' W 003°33'2 0.3
2018-Aug-15 02:27N 53°56' W 003°30'1017.7
2018-Aug-15 01:53N 53°56' W 003°13'816.6
2018-Aug-15 01:25N 53°59' W 003°01'4 1.3
2018-Aug-14 22:08N 54°02' W 002°55'314.4
2018-Aug-14 21:53N 53°59' W 002°60'411.1
2018-Aug-14 21:30N 53°57' W 003°06'815.8
2018-Aug-14 21:00N 53°55' W 003°18'918.4
2018-Aug-14 20:30N 53°57' W 003°34'3 0.6
2018-Aug-14 14:25N 53°56' W 003°28'918.2
2018-Aug-14 13:56N 53°56' W 003°13'817.3
2018-Aug-14 13:28N 53°59' W 003°01'5 1.5
2018-Aug-14 10:21N 53°56' W 003°07'720.5
2018-Aug-14 10:00N 53°55' W 003°19'1019.6
2018-Aug-14 09:30N 53°57' W 003°35'9 1.4
2018-Aug-14 03:10N 54°00' W 003°50'717.7
2018-Aug-14 02:45N 53°58' W 003°38'617.4
2018-Aug-14 02:25N 53°56' W 003°29'1017.6
2018-Aug-14 01:53N 53°56' W 003°13'817.3
2018-Aug-14 01:25N 53°59' W 003°01'4 1.3
2018-Aug-13 21:58N 54°02' W 002°55'1018.7
2018-Aug-13 21:26N 53°56' W 003°09'819.2
2018-Aug-13 21:00N 53°55' W 003°23'6 0.9
2018-Aug-13 13:56N 53°56' W 003°12'717.2
2018-Aug-13 13:30N 53°59' W 003°01'4 1.7
2018-Aug-13 10:53N 54°02' W 002°55'918.5
2018-Aug-13 10:25N 53°57' W 003°07'819.1
2018-Aug-13 10:00N 53°56' W 003°20'918.5
2018-Aug-13 09:30N 53°57' W 003°36'2 0.3
2018-Aug-13 02:21N 53°55' W 003°33'1219.3
2018-Aug-13 01:44N 53°55' W 003°13'519.5
2018-Aug-13 01:30N 53°57' W 003°06'1 0.2
2018-Aug-12 21:39N 53°57' W 003°04'321.8
2018-Aug-12 21:30N 53°56' W 003°09'1020.3
2018-Aug-12 21:00N 53°55' W 003°26'1119.5
2018-Aug-12 20:27N 53°58' W 003°44'12 1.9
2018-Aug-12 14:23N 53°56' W 003°24'820.3
2018-Aug-12 14:00N 53°56' W 003°11'5 1.9
2018-Aug-12 11:30N 53°58' W 003°04'918.8
2018-Aug-12 11:00N 53°56' W 003°19'918.7
2018-Aug-12 10:30N 53°57' W 003°35'5711.2
2018-Aug-12 05:23N 54°15' W 005°07'717.3
2018-Aug-12 05:00N 54°22' W 005°09'918.5
2018-Aug-12 04:31N 54°30' W 005°16'917.6
2018-Aug-12 04:01N 54°38' W 005°20'714.8
2018-Aug-12 03:31N 54°43' W 005°30'918.6
2018-Aug-12 03:00N 54°42' W 005°46'611.0
2018-Aug-12 02:28N 54°37' W 005°54'1 2.1
2018-Aug-12 01:58N 54°37' W 005°55'0 0.0
2018-Aug-12 01:28N 54°37' W 005°55'1 2.0
2018-Aug-12 01:00N 54°37' W 005°54'612.1
2018-Aug-12 00:31N 54°42' W 005°46'815.0
2018-Aug-12 00:00N 54°43' W 005°34'816.1
2018-Aug-11 23:30N 54°38' W 005°23'918.5
2018-Aug-11 23:00N 54°30' W 005°17'918.1
2018-Aug-11 22:30N 54°22' W 005°09'918.1
2018-Aug-11 22:01N 54°14' W 005°01'57 7.3
2018-Aug-11 14:11N 53°56' W 003°29'919.8
2018-Aug-11 13:43N 53°56' W 003°13'420.1
2018-Aug-11 13:30N 53°57' W 003°06'8 3.0
2018-Aug-11 10:47N 54°02' W 002°55'616.8
2018-Aug-11 10:24N 53°58' W 003°04'819.1
2018-Aug-11 09:58N 53°56' W 003°18'918.8
2018-Aug-11 09:29N 53°57' W 003°33'919.1
2018-Aug-11 09:00N 53°60' W 003°47'12 1.8
2018-Aug-11 02:10N 53°56' W 003°28'1019.4
2018-Aug-11 01:41N 53°56' W 003°12'2 0.4
2018-Aug-10 21:15N 53°56' W 003°09'519.4
2018-Aug-10 21:00N 53°55' W 003°17'918.8
2018-Aug-10 20:30N 53°57' W 003°33'2 0.3
2018-Aug-10 14:23N 53°56' W 003°30'1018.8
2018-Aug-10 13:50N 53°56' W 003°12'3 0.9
2018-Aug-10 10:22N 53°57' W 003°07'618.1
2018-Aug-10 10:00N 53°55' W 003°18'918.2
2018-Aug-10 09:30N 53°57' W 003°33'3 0.4
2018-Aug-10 02:34N 53°55' W 003°29'1118.6
2018-Aug-10 01:59N 53°56' W 003°11'2 0.5
2018-Aug-09 21:23N 53°56' W 003°07'718.5
2018-Aug-09 20:59N 53°55' W 003°19'918.6
2018-Aug-09 20:30N 53°57' W 003°34'33 8.2
2018-Aug-09 16:28N 54°09' W 004°27'3617.9
2018-Aug-09 14:26N 53°56' W 003°29'1018.7
2018-Aug-09 13:55N 53°56' W 003°12'5 1.6
2018-Aug-09 10:29N 53°58' W 003°04'917.9
2018-Aug-09 10:00N 53°55' W 003°18'917.8
2018-Aug-09 09:30N 53°56' W 003°33'3 0.4
2018-Aug-09 02:23N 53°56' W 003°28'1018.4
2018-Aug-09 01:52N 53°56' W 003°12'4 1.0
2018-Aug-08 21:30N 53°57' W 003°05'916.7
2018-Aug-08 20:59N 53°55' W 003°19'918.2
2018-Aug-08 20:30N 53°56' W 003°34'2 0.3
2018-Aug-08 14:24N 53°56' W 003°30'1017.7
2018-Aug-08 13:49N 53°56' W 003°13'4 1.2
2018-Aug-08 10:32N 53°57' W 003°06'117.4
2018-Aug-08 10:30N 53°57' W 003°07'917.4
2018-Aug-08 10:01N 53°55' W 003°21'817.0
2018-Aug-08 09:31N 53°57' W 003°35'3 0.5
2018-Aug-08 02:23N 53°56' W 003°30'1117.7
2018-Aug-08 01:47N 53°56' W 003°11'  

Dump ship's entire track history